createdAt,value
2023-05-10T00:00:45.028Z,18.19
2023-05-10T00:03:47.251Z,18.20
2023-05-10T00:06:49.486Z,18.13
2023-05-10T00:09:52.572Z,18.08
2023-05-10T00:12:54.750Z,18.03
2023-05-10T00:15:56.978Z,18.05
2023-05-10T00:19:00.501Z,17.98
2023-05-10T00:22:02.624Z,17.96
2023-05-10T00:25:05.328Z,17.92
2023-05-10T00:28:07.650Z,17.88
2023-05-10T00:31:09.810Z,17.84
2023-05-10T00:34:12.067Z,17.79
2023-05-10T00:37:14.275Z,17.75
2023-05-10T00:40:16.941Z,17.70
2023-05-10T00:43:24.401Z,17.67
2023-05-10T00:46:27.025Z,17.67
2023-05-10T00:49:29.593Z,17.62
2023-05-10T00:52:32.054Z,17.55
2023-05-10T00:55:34.838Z,17.61
2023-05-10T00:58:37.257Z,17.57
2023-05-10T01:01:39.934Z,17.50
2023-05-10T01:04:42.247Z,17.51
2023-05-10T01:07:44.418Z,17.48
2023-05-10T01:10:46.665Z,17.45
2023-05-10T01:13:53.907Z,17.42
2023-05-10T01:16:56.124Z,17.46
2023-05-10T01:19:58.333Z,17.46
2023-05-10T01:23:18.721Z,17.49
2023-05-10T01:26:36.075Z,17.48
2023-05-10T01:30:21.854Z,17.41
2023-05-10T01:33:28.944Z,17.44
2023-05-10T01:36:34.855Z,17.44
2023-05-10T01:40:16.205Z,17.43
2023-05-10T01:43:25.220Z,17.44
2023-05-10T01:46:33.825Z,17.49
2023-05-10T01:49:41.307Z,17.50
2023-05-10T01:52:45.722Z,17.53
2023-05-10T01:55:53.511Z,17.53
2023-05-10T01:58:56.428Z,17.52
2023-05-10T02:02:00.062Z,17.56
2023-05-10T02:05:04.789Z,17.58
2023-05-10T02:08:08.136Z,17.60
2023-05-10T02:11:14.375Z,17.60
2023-05-10T02:14:16.793Z,17.59
2023-05-10T02:17:19.597Z,17.60
2023-05-10T02:20:23.570Z,17.64
2023-05-10T02:23:26.717Z,17.71
2023-05-10T02:26:29.044Z,17.73
2023-05-10T02:29:32.380Z,17.75
2023-05-10T02:32:35.333Z,17.78
2023-05-10T02:35:38.781Z,17.78
2023-05-10T02:38:41.450Z,17.82
2023-05-10T02:41:44.408Z,17.82
2023-05-10T02:44:47.401Z,17.83
2023-05-10T02:47:50.985Z,17.80
2023-05-10T02:50:54.025Z,17.82
2023-05-10T02:53:56.805Z,17.82
2023-05-10T02:57:03.864Z,17.84
2023-05-10T03:00:06.945Z,17.84
2023-05-10T03:03:09.357Z,17.84
2023-05-10T03:06:11.567Z,17.81
2023-05-10T03:09:16.425Z,17.82
2023-05-10T03:12:43.857Z,17.81
2023-05-10T03:16:11.488Z,17.83
2023-05-10T03:19:23.982Z,17.79
2023-05-10T03:22:30.878Z,17.76
2023-05-10T03:25:33.482Z,17.73
2023-05-10T03:28:37.773Z,17.74
2023-05-10T03:31:41.399Z,17.72
2023-05-10T03:34:46.585Z,17.68
2023-05-10T03:37:48.824Z,17.69
2023-05-10T03:40:51.055Z,17.60
2023-05-10T03:43:53.233Z,17.57
2023-05-10T03:46:55.507Z,17.56
2023-05-10T03:49:58.095Z,17.54
2023-05-10T03:53:00.304Z,17.52
2023-05-10T03:56:03.863Z,17.49
2023-05-10T03:59:08.451Z,17.50
2023-05-10T04:02:11.028Z,17.53
2023-05-10T04:05:13.622Z,17.57
2023-05-10T04:08:17.406Z,17.63
2023-05-10T04:11:19.635Z,17.62
2023-05-10T04:14:21.874Z,17.67
2023-05-10T04:17:24.058Z,17.68
2023-05-10T04:20:26.250Z,17.72
2023-05-10T04:23:28.769Z,17.73
2023-05-10T04:26:31.044Z,17.71
2023-05-10T04:29:33.143Z,17.74
2023-05-10T04:32:35.329Z,17.80
2023-05-10T04:35:37.878Z,17.83
2023-05-10T04:38:40.103Z,17.80
2023-05-10T04:41:42.306Z,17.78
2023-05-10T04:44:44.495Z,17.83
2023-05-10T04:47:46.624Z,17.76
2023-05-10T04:50:48.808Z,17.73
2023-05-10T04:54:01.578Z,17.70
2023-05-10T04:57:07.205Z,17.76
2023-05-10T05:00:09.983Z,17.80
2023-05-10T05:03:12.268Z,18.00
2023-05-10T05:06:14.455Z,18.08
2023-05-10T05:09:17.339Z,18.07
2023-05-10T05:12:19.569Z,18.04
2023-05-10T05:15:21.800Z,18.03
2023-05-10T05:18:23.950Z,18.08
2023-05-10T05:21:27.909Z,18.20
2023-05-10T05:24:30.094Z,18.29
2023-05-10T05:27:32.355Z,18.38
2023-05-10T05:30:34.477Z,18.50
2023-05-10T05:33:36.812Z,18.58
2023-05-10T05:36:41.792Z,18.66
2023-05-10T05:39:44.263Z,18.70
2023-05-10T05:42:46.407Z,18.89
2023-05-10T05:45:48.671Z,18.94
2023-05-10T05:48:50.910Z,19.07
2023-05-10T05:51:53.054Z,19.12
2023-05-10T05:54:55.531Z,19.15
2023-05-10T05:57:57.884Z,19.22
2023-05-10T06:01:00.029Z,19.31
2023-05-10T06:04:02.317Z,19.29
2023-05-10T06:07:04.897Z,19.26
2023-05-10T06:10:07.749Z,19.40
2023-05-10T06:13:10.070Z,19.36
2023-05-10T06:16:12.256Z,19.44
2023-05-10T06:19:14.380Z,19.53
2023-05-10T06:22:16.517Z,19.63
2023-05-10T06:25:19.433Z,19.71
2023-05-10T06:28:22.069Z,19.78
2023-05-10T06:31:24.308Z,19.84
2023-05-10T06:34:26.670Z,19.79
2023-05-10T06:37:29.186Z,19.82
2023-05-10T06:40:31.398Z,19.88
2023-05-10T06:43:33.638Z,19.83
2023-05-10T06:46:36.204Z,19.89
2023-05-10T06:49:38.492Z,19.99
2023-05-10T06:52:44.195Z,20.06
2023-05-10T06:55:46.510Z,20.16
2023-05-10T06:58:49.491Z,20.09
2023-05-10T07:01:52.118Z,20.10
2023-05-10T07:04:54.522Z,20.12
2023-05-10T07:07:56.726Z,20.14
2023-05-10T07:11:08.073Z,20.13
2023-05-10T07:14:10.551Z,20.16
2023-05-10T07:17:12.792Z,20.17
2023-05-10T07:20:15.419Z,20.18
2023-05-10T07:23:18.768Z,20.26
2023-05-10T07:26:21.982Z,20.28
2023-05-10T07:29:24.255Z,20.27
2023-05-10T07:32:26.566Z,20.36
2023-05-10T07:35:28.934Z,20.37
2023-05-10T07:38:31.067Z,20.48
2023-05-10T07:41:35.101Z,20.56
2023-05-10T07:44:37.840Z,20.53
2023-05-10T07:47:40.106Z,20.55
2023-05-10T07:50:42.307Z,20.62
2023-05-10T07:53:44.399Z,20.66
2023-05-10T07:56:47.848Z,20.69
2023-05-10T07:59:50.019Z,20.77
2023-05-10T08:02:52.421Z,20.89
2023-05-10T08:05:54.618Z,20.93
2023-05-10T08:08:57.097Z,20.92
2023-05-10T08:12:00.296Z,20.92
2023-05-10T08:15:02.504Z,20.98
2023-05-10T08:18:05.378Z,20.94
2023-05-10T08:21:07.970Z,20.96
2023-05-10T08:24:10.176Z,20.87
2023-05-10T08:27:14.562Z,20.92
2023-05-10T08:30:16.629Z,21.00
2023-05-10T08:33:19.644Z,21.05
2023-05-10T08:36:22.969Z,21.03
2023-05-10T08:39:30.396Z,21.07
2023-05-10T08:42:36.338Z,21.15
2023-05-10T08:45:40.347Z,21.10
2023-05-10T08:48:43.511Z,21.17
2023-05-10T08:51:52.095Z,21.20
2023-05-10T08:54:54.334Z,21.23
2023-05-10T08:57:56.566Z,21.33
2023-05-10T09:00:59.035Z,21.34
2023-05-10T09:04:01.335Z,21.39
2023-05-10T09:07:03.734Z,21.46
2023-05-10T09:10:14.313Z,21.57
2023-05-10T09:13:31.939Z,21.63
2023-05-10T09:16:34.176Z,21.66
2023-05-10T09:19:36.393Z,21.73
2023-05-10T09:22:39.313Z,21.73
2023-05-10T09:25:42.613Z,21.67
2023-05-10T09:28:59.199Z,21.69
2023-05-10T09:32:01.716Z,21.72
2023-05-10T09:35:25.856Z,21.76
2023-05-10T09:38:29.298Z,21.71
2023-05-10T09:41:31.551Z,21.73
2023-05-10T09:44:34.869Z,21.78
2023-05-10T09:47:37.229Z,21.80
2023-05-10T09:50:39.785Z,21.80
2023-05-10T09:53:42.043Z,21.89
2023-05-10T09:56:44.194Z,21.97
2023-05-10T09:59:46.617Z,22.00
2023-05-10T10:02:54.990Z,21.98
2023-05-10T10:05:57.816Z,22.04
2023-05-10T10:08:59.992Z,22.04
2023-05-10T10:12:03.418Z,22.04
2023-05-10T10:15:06.496Z,22.02
2023-05-10T10:18:09.126Z,22.15
2023-05-10T10:21:12.047Z,22.26
2023-05-10T10:24:14.214Z,22.34
2023-05-10T10:27:40.491Z,22.41
2023-05-10T10:30:44.594Z,22.47
2023-05-10T10:34:08.084Z,22.50
2023-05-10T10:37:12.530Z,22.50
2023-05-10T10:40:44.204Z,22.46
2023-05-10T10:43:46.413Z,22.46
2023-05-10T10:47:04.565Z,22.56
2023-05-10T10:50:09.241Z,22.67
2023-05-10T10:53:13.188Z,22.73
2023-05-10T10:56:16.508Z,22.70
2023-05-10T10:59:28.087Z,22.82
2023-05-10T11:02:35.425Z,22.80
2023-05-10T11:05:40.521Z,22.82
2023-05-10T11:08:46.955Z,22.82
2023-05-10T11:11:53.685Z,22.86
2023-05-10T11:14:58.735Z,22.92
2023-05-10T11:18:01.254Z,22.96
2023-05-10T11:21:05.981Z,23.04
2023-05-10T11:24:14.739Z,23.08
2023-05-10T11:27:16.944Z,23.09
2023-05-10T11:30:19.566Z,23.07
2023-05-10T11:33:22.054Z,23.16
2023-05-10T11:36:28.848Z,23.11
2023-05-10T11:39:32.708Z,23.09
2023-05-10T11:42:34.939Z,23.06
2023-05-10T11:45:37.573Z,22.96
2023-05-10T11:48:40.723Z,22.92
2023-05-10T11:51:44.477Z,22.92
2023-05-10T11:54:53.732Z,22.97
2023-05-10T11:57:58.043Z,22.92
2023-05-10T12:01:00.974Z,22.88
2023-05-10T12:04:03.643Z,22.82
2023-05-10T12:07:10.532Z,22.85
2023-05-10T12:10:27.574Z,22.87
2023-05-10T12:13:29.763Z,22.83
2023-05-10T12:16:32.311Z,22.83
2023-05-10T12:19:40.932Z,22.84
2023-05-10T12:22:50.874Z,22.83
2023-05-10T12:25:54.935Z,22.81
2023-05-10T12:29:13.327Z,22.82
2023-05-10T12:32:15.490Z,22.83
2023-05-10T12:35:17.746Z,22.76
2023-05-10T12:38:30.441Z,22.77
2023-05-10T12:41:32.688Z,22.74
2023-05-10T12:44:34.890Z,22.76
2023-05-10T12:47:37.228Z,22.76
2023-05-10T12:50:39.423Z,22.80
2023-05-10T12:53:45.631Z,22.84
2023-05-10T12:56:48.892Z,22.86
2023-05-10T13:00:05.382Z,22.86
2023-05-10T13:03:19.697Z,22.94
2023-05-10T13:06:36.116Z,22.98
2023-05-10T13:09:42.025Z,23.15
2023-05-10T13:12:44.382Z,23.27
2023-05-10T13:15:46.525Z,23.12
2023-05-10T13:18:48.705Z,23.26
2023-05-10T13:21:50.855Z,23.28
2023-05-10T13:24:55.019Z,23.33
2023-05-10T13:27:57.180Z,23.47
2023-05-10T13:31:00.914Z,23.50
2023-05-10T13:34:03.704Z,23.59
2023-05-10T13:37:05.910Z,23.71
2023-05-10T13:40:08.578Z,23.80
2023-05-10T13:43:11.074Z,23.75
2023-05-10T13:46:14.887Z,23.73
2023-05-10T13:50:06.829Z,23.73
2023-05-10T13:53:50.385Z,23.71
2023-05-10T13:57:00.999Z,23.58
2023-05-10T14:00:03.651Z,23.56
2023-05-10T14:03:12.102Z,23.52
2023-05-10T14:06:14.679Z,23.63
2023-05-10T14:09:17.574Z,23.90
2023-05-10T14:12:19.707Z,24.13
2023-05-10T14:15:22.037Z,24.35
2023-05-10T14:18:24.187Z,24.49
2023-05-10T14:21:26.337Z,24.51
2023-05-10T14:24:28.664Z,24.59
2023-05-10T14:27:31.391Z,24.87
2023-05-10T14:30:36.399Z,24.91
2023-05-10T14:33:38.530Z,24.84
2023-05-10T14:36:41.408Z,24.77
2023-05-10T14:39:43.721Z,24.72
2023-05-10T14:42:45.837Z,24.64
2023-05-10T14:45:48.580Z,24.63
2023-05-10T14:48:50.797Z,24.46
2023-05-10T14:51:53.196Z,24.35
2023-05-10T14:54:55.386Z,24.27
2023-05-10T14:57:57.502Z,24.13
2023-05-10T15:00:59.685Z,23.99
2023-05-10T15:04:02.221Z,24.05
2023-05-10T15:07:05.100Z,24.02
2023-05-10T15:10:07.855Z,23.95
2023-05-10T15:13:09.959Z,23.92
2023-05-10T15:16:12.124Z,23.88
2023-05-10T15:19:14.292Z,23.86
2023-05-10T15:22:16.504Z,23.94
2023-05-10T15:25:19.249Z,24.04
2023-05-10T15:28:21.586Z,24.04
2023-05-10T15:31:23.772Z,23.99
2023-05-10T15:34:25.967Z,24.02
2023-05-10T15:37:28.423Z,23.94
2023-05-10T15:40:30.556Z,23.86
2023-05-10T15:43:32.680Z,23.94
2023-05-10T15:46:34.945Z,23.87
2023-05-10T15:49:37.279Z,23.80
2023-05-10T15:52:39.472Z,23.80
2023-05-10T15:55:41.637Z,23.87
2023-05-10T15:58:44.027Z,23.84
2023-05-10T16:01:46.287Z,23.74
2023-05-10T16:04:48.551Z,23.77
2023-05-10T16:07:50.714Z,23.70
2023-05-10T16:10:52.910Z,23.66
2023-05-10T16:13:55.129Z,23.63
2023-05-10T16:16:57.354Z,23.57
2023-05-10T16:19:59.602Z,23.48
2023-05-10T16:23:05.911Z,23.35
2023-05-10T16:26:08.817Z,23.36
2023-05-10T16:29:10.989Z,23.28
2023-05-10T16:32:13.090Z,23.30
2023-05-10T16:35:15.473Z,23.33
2023-05-10T16:38:17.957Z,23.33
2023-05-10T16:41:20.077Z,23.27
2023-05-10T16:44:25.184Z,23.24
2023-05-10T16:47:28.065Z,23.17
2023-05-10T16:50:30.425Z,23.09
2023-05-10T16:53:32.549Z,23.05
2023-05-10T16:56:34.684Z,22.97
2023-05-10T16:59:36.835Z,22.92
2023-05-10T17:02:39.358Z,22.86
2023-05-10T17:05:42.104Z,22.75
2023-05-10T17:08:44.755Z,22.68
2023-05-10T17:11:47.107Z,22.58
2023-05-10T17:14:49.257Z,22.47
2023-05-10T17:17:51.552Z,22.42
2023-05-10T17:20:53.706Z,22.29
2023-05-10T17:23:55.925Z,22.18
2023-05-10T17:26:58.084Z,22.10
2023-05-10T17:30:00.623Z,22.01
2023-05-10T17:33:02.762Z,21.96
2023-05-10T17:36:05.005Z,21.89
2023-05-10T17:39:07.097Z,21.79
2023-05-10T17:42:09.217Z,21.78
2023-05-10T17:45:11.784Z,21.71
2023-05-10T17:48:14.103Z,21.60
2023-05-10T17:51:16.276Z,21.55
2023-05-10T17:54:18.431Z,21.50
2023-05-10T17:57:20.819Z,21.41
2023-05-10T18:00:23.099Z,21.33
2023-05-10T18:03:25.299Z,21.26
2023-05-10T18:06:27.498Z,21.19
2023-05-10T18:09:30.117Z,21.16
2023-05-10T18:12:32.250Z,21.09
2023-05-10T18:15:35.381Z,21.02
2023-05-10T18:18:38.190Z,20.97
2023-05-10T18:21:40.362Z,20.92
2023-05-10T18:24:42.814Z,20.84
2023-05-10T18:27:44.998Z,20.81
2023-05-10T18:30:47.164Z,20.72
2023-05-10T18:33:49.267Z,20.73
2023-05-10T18:36:52.115Z,20.70
2023-05-10T18:39:54.510Z,20.62
2023-05-10T18:42:56.743Z,20.61
2023-05-10T18:45:58.886Z,20.50
2023-05-10T18:49:01.200Z,20.47
2023-05-10T18:52:03.414Z,20.45
2023-05-10T18:55:06.656Z,20.44
2023-05-10T18:58:09.070Z,20.38
2023-05-10T19:01:11.308Z,20.30
2023-05-10T19:04:13.511Z,20.26
2023-05-10T19:07:15.862Z,20.26
2023-05-10T19:10:17.998Z,20.21
2023-05-10T19:13:20.269Z,20.20
2023-05-10T19:16:23.373Z,20.16
2023-05-10T19:19:26.205Z,20.15
2023-05-10T19:22:44.984Z,20.11
2023-05-10T19:25:50.610Z,20.13
2023-05-10T19:28:52.813Z,20.11
2023-05-10T19:31:55.129Z,20.08
2023-05-10T19:34:57.365Z,20.04
2023-05-10T19:37:59.562Z,19.99
2023-05-10T19:41:02.031Z,19.98
2023-05-10T19:44:04.149Z,19.98
2023-05-10T19:47:07.783Z,19.97
2023-05-10T19:50:10.341Z,19.92
2023-05-10T19:53:12.603Z,19.93
2023-05-10T19:56:14.804Z,19.94
2023-05-10T19:59:16.906Z,19.94
2023-05-10T20:02:19.118Z,19.93
2023-05-10T20:05:21.831Z,19.86
2023-05-10T20:08:24.672Z,19.88
2023-05-10T20:11:26.810Z,19.88
2023-05-10T20:14:28.932Z,19.85
2023-05-10T20:17:31.275Z,19.83
2023-05-10T20:20:33.592Z,19.87
2023-05-10T20:23:35.806Z,19.83
2023-05-10T20:26:38.024Z,19.80
2023-05-10T20:29:40.137Z,19.79
2023-05-10T20:32:42.410Z,19.75
2023-05-10T20:35:44.615Z,19.74
2023-05-10T20:38:46.787Z,19.77
2023-05-10T20:41:49.490Z,19.76
2023-05-10T20:44:51.756Z,19.74
2023-05-10T20:47:57.077Z,19.75
2023-05-10T20:51:01.203Z,19.72
2023-05-10T20:54:04.323Z,19.69
2023-05-10T20:57:06.517Z,19.70
2023-05-10T21:00:09.544Z,19.67
2023-05-10T21:03:11.764Z,19.65
2023-05-10T21:06:14.001Z,19.66
2023-05-10T21:09:17.501Z,19.64
2023-05-10T21:12:19.655Z,19.62
2023-05-10T21:15:25.617Z,19.57
2023-05-10T21:18:28.038Z,19.55
2023-05-10T21:21:30.320Z,19.57
2023-05-10T21:24:33.244Z,19.51
2023-05-10T21:27:35.531Z,19.52
2023-05-10T21:30:37.706Z,19.51
2023-05-10T21:33:39.836Z,19.51
2023-05-10T21:36:42.027Z,19.46
2023-05-10T21:39:44.509Z,19.49
2023-05-10T21:42:49.528Z,19.45
2023-05-10T21:45:51.772Z,19.49
2023-05-10T21:48:53.915Z,19.45
2023-05-10T21:51:56.077Z,19.44
2023-05-10T21:54:58.257Z,19.44
2023-05-10T21:58:00.382Z,19.41
2023-05-10T22:01:03.197Z,19.34
2023-05-10T22:04:05.486Z,19.33
2023-05-10T22:07:07.667Z,19.36
2023-05-10T22:10:10.116Z,19.35
2023-05-10T22:13:12.244Z,19.36
2023-05-10T22:16:14.715Z,19.34
2023-05-10T22:19:16.946Z,19.30
2023-05-10T22:22:19.113Z,19.33
2023-05-10T22:25:21.224Z,19.29
2023-05-10T22:28:23.322Z,19.28
2023-05-10T22:31:25.600Z,19.28
2023-05-10T22:34:27.847Z,19.27
2023-05-10T22:37:29.976Z,19.21
2023-05-10T22:40:32.164Z,19.16
2023-05-10T22:43:34.293Z,19.10
2023-05-10T22:46:37.330Z,19.11
2023-05-10T22:49:39.555Z,19.08
2023-05-10T22:52:41.709Z,18.99
2023-05-10T22:55:43.834Z,18.99
2023-05-10T22:58:45.928Z,18.90
2023-05-10T23:01:48.989Z,18.90
2023-05-10T23:04:51.434Z,18.86
2023-05-10T23:07:54.352Z,18.85
2023-05-10T23:10:56.875Z,18.82
2023-05-10T23:13:59.067Z,18.82
2023-05-10T23:17:01.386Z,18.79
2023-05-10T23:20:03.758Z,18.75
2023-05-10T23:23:05.978Z,18.74
2023-05-10T23:26:08.853Z,18.73
2023-05-10T23:29:10.964Z,18.75
2023-05-10T23:32:13.188Z,18.74
2023-05-10T23:35:15.465Z,18.74
2023-05-10T23:38:17.765Z,18.73
2023-05-10T23:41:19.929Z,18.76
2023-05-10T23:44:22.111Z,18.68
2023-05-10T23:47:24.297Z,18.67
2023-05-10T23:50:27.082Z,18.71
2023-05-10T23:53:29.248Z,18.68
2023-05-10T23:56:31.431Z,18.68
2023-05-10T23:59:33.608Z,18.64
